Time;durP1;ratioP1;P1;durP2;ratioP2;P2;SDS_P1;SDS_P2;PMS_P1;PMS_P2;Temp;Humidity;BMP_temperature;BMP_pressure;BME280_temperature;BME280_humidity;BME280_pressure;Samples;Min_cycle;Max_cycle;Signal;HPM_P1;HPM_P2
2023/06/18 00:00:29;;;;;;;18.60;16.60;;;17.60;99.30;;;;;;5017236;28;20557;-74
2023/06/18 00:02:55;;;;;;;17.80;15.68;;;17.60;99.50;;;;;;5033673;28;20041;-74
2023/06/18 00:05:21;;;;;;;18.15;16.17;;;17.60;99.50;;;;;;5017137;28;20049;-74
2023/06/18 00:07:46;;;;;;;18.73;16.17;;;17.60;99.70;;;;;;5033579;28;20042;-74
2023/06/18 00:10:12;;;;;;;21.48;17.15;;;17.50;99.80;;;;;;5033489;28;20072;-74
2023/06/18 00:12:37;;;;;;;21.30;19.00;;;17.50;99.90;;;;;;5033529;28;20041;-74
2023/06/18 00:15:03;;;;;;;20.80;18.60;;;17.50;99.90;;;;;;5033371;28;20038;-74
2023/06/18 00:17:29;;;;;;;23.08;20.70;;;17.50;99.90;;;;;;5033728;28;20037;-74
2023/06/18 00:19:55;;;;;;;21.95;19.63;;;17.60;99.90;;;;;;5033651;28;20525;-74
2023/06/18 00:22:21;;;;;;;22.20;19.90;;;17.50;99.90;;;;;;5033004;28;20493;-74
2023/06/18 00:24:47;;;;;;;21.88;19.58;;;17.60;99.90;;;;;;5033294;28;20049;-74
2023/06/18 00:27:13;;;;;;;26.38;22.27;;;17.60;99.90;;;;;;5033570;28;20171;-74
2023/06/18 00:29:40;;;;;;;24.52;21.25;;;17.60;99.90;;;;;;5033304;28;20477;-74
2023/06/18 00:32:07;;;;;;;24.00;21.35;;;17.60;99.90;;;;;;5033217;28;20045;-74
2023/06/18 00:34:32;;;;;;;24.65;22.05;;;17.60;99.90;;;;;;5033035;28;20041;-74
2023/06/18 00:37:02;;;;;;;25.95;23.15;;;17.50;99.90;;;;;;5033178;28;20087;-74
2023/06/18 00:39:28;;;;;;;25.60;22.42;;;17.50;99.90;;;;;;5033196;28;20037;-74
2023/06/18 00:41:54;;;;;;;25.45;22.67;;;17.50;99.90;;;;;;5033077;28;20037;-74
2023/06/18 00:44:20;;;;;;;25.58;22.85;;;17.50;99.90;;;;;;5033314;28;20091;-74
2023/06/18 00:46:47;;;;;;;29.08;23.90;;;17.40;99.90;;;;;;5032895;28;20402;-74
2023/06/18 00:49:15;;;;;;;25.88;22.85;;;17.40;99.90;;;;;;5033201;28;20409;-74
2023/06/18 00:51:44;;;;;;;26.27;23.40;;;17.40;99.90;;;;;;5032881;28;20046;-74
2023/06/18 00:54:19;;;;;;;27.88;24.88;;;17.40;99.90;;;;;;5032802;28;20416;-74
2023/06/18 00:56:51;;;;;;;27.25;24.33;;;17.40;99.90;;;;;;4996631;28;1076171;-74
2023/06/18 00:59:22;;;;;;;29.08;25.08;;;17.40;99.90;;;;;;5033901;28;20041;-74
2023/06/18 01:01:55;;;;;;;26.20;23.42;;;17.40;99.90;;;;;;5033823;28;20044;-74
2023/06/18 01:04:26;;;;;;;28.88;24.80;;;17.40;99.90;;;;;;5034054;28;20572;-74
2023/06/18 01:06:54;;;;;;;29.80;24.70;;;17.30;99.90;;;;;;5034006;28;20402;-74
2023/06/18 01:09:24;;;;;;;26.02;23.42;;;17.40;99.90;;;;;;5033685;28;20045;-74
2023/06/18 01:11:53;;;;;;;27.17;23.42;;;17.30;99.90;;;;;;5034277;28;20087;-74
2023/06/18 01:14:21;;;;;;;26.63;23.70;;;17.30;99.90;;;;;;5033442;28;20140;-74
2023/06/18 01:16:53;;;;;;;25.90;23.17;;;17.30;99.90;;;;;;5033405;28;20041;-74
2023/06/18 01:19:40;;;;;;;28.02;23.20;;;17.30;99.90;;;;;;5033485;28;20405;-74
2023/06/18 01:22:16;;;;;;;25.40;22.70;;;17.20;99.90;;;;;;5033455;28;20041;-74
2023/06/18 01:24:49;;;;;;;26.70;23.90;;;17.20;99.90;;;;;;5033300;28;20087;-74
2023/06/18 01:27:16;;;;;;;28.63;24.48;;;17.20;99.90;;;;;;5033604;28;20041;-74
2023/06/18 01:29:42;;;;;;;28.88;24.33;;;17.20;99.90;;;;;;5016802;28;20502;-74
2023/06/18 01:32:08;;;;;;;28.83;24.60;;;17.10;99.90;;;;;;5033171;28;20571;-75
2023/06/18 01:34:38;;;;;;;27.10;24.23;;;17.10;99.90;;;;;;5015747;28;20038;-75
2023/06/18 01:37:50;;;;;;;27.88;23.98;;;17.10;99.90;;;;;;5016901;28;20033;-74
2023/06/18 01:40:34;;;;;;;27.95;24.95;;;17.10;99.90;;;;;;5018603;28;20049;-74
2023/06/18 01:43:27;;;;;;;27.73;24.17;;;17.00;99.90;;;;;;5033023;28;20033;-74
2023/06/18 01:45:59;;;;;;;27.45;23.88;;;17.00;99.90;;;;;;5032926;28;20441;-74
2023/06/18 01:48:27;;;;;;;27.67;23.48;;;16.90;99.90;;;;;;5033203;28;20037;-74
2023/06/18 01:50:56;;;;;;;28.77;23.73;;;16.90;99.90;;;;;;5033106;28;20059;-74
2023/06/18 01:53:24;;;;;;;26.20;23.15;;;16.90;99.90;;;;;;5032701;28;20037;-74
2023/06/18 01:55:52;;;;;;;27.77;23.88;;;16.90;99.90;;;;;;5032593;28;20112;-74
2023/06/18 01:58:21;;;;;;;26.58;23.70;;;16.90;99.90;;;;;;5032765;28;20041;-74
2023/06/18 02:00:48;;;;;;;25.15;22.35;;;16.90;99.90;;;;;;5032876;28;20106;-74
2023/06/18 02:03:13;;;;;;;31.50;23.33;;;16.90;99.90;;;;;;5032932;28;20445;-74
2023/06/18 02:05:39;;;;;;;26.42;23.67;;;16.90;99.90;;;;;;5032535;28;20486;-74
2023/06/18 02:08:05;;;;;;;25.90;22.63;;;16.80;99.90;;;;;;5032524;28;20115;-74
2023/06/18 02:10:30;;;;;;;27.83;24.02;;;16.80;99.90;;;;;;5032756;28;20060;-74
2023/06/18 02:12:56;;;;;;;30.08;24.00;;;16.70;99.90;;;;;;5016059;28;20475;-74
2023/06/18 02:15:22;;;;;;;29.05;24.00;;;16.70;99.90;;;;;;5032312;28;20037;-74
2023/06/18 02:17:47;;;;;;;25.73;22.90;;;16.70;99.90;;;;;;5032392;28;20079;-74
2023/06/18 02:20:13;;;;;;;26.48;23.42;;;16.60;99.90;;;;;;5015905;28;20045;-74
2023/06/18 02:22:39;;;;;;;28.05;23.65;;;16.60;99.90;;;;;;5032308;28;20038;-74
2023/06/18 02:25:05;;;;;;;25.08;22.45;;;16.50;99.90;;;;;;5032195;28;20191;-74
2023/06/18 02:27:31;;;;;;;25.30;22.70;;;16.50;99.90;;;;;;5032212;28;20048;-74
2023/06/18 02:30:00;;;;;;;24.77;22.08;;;16.50;99.90;;;;;;5032461;28;20037;-74
2023/06/18 02:32:28;;;;;;;26.65;23.13;;;16.40;99.90;;;;;;5032171;28;20052;-74
2023/06/18 02:34:55;;;;;;;26.65;23.80;;;16.40;99.90;;;;;;5031973;28;20048;-74
2023/06/18 02:37:20;;;;;;;25.98;22.95;;;16.30;99.90;;;;;;5032112;28;20038;-74
2023/06/18 02:39:46;;;;;;;14.48;12.68;;;16.20;99.90;;;;;;5032057;28;20037;-74
2023/06/18 02:42:12;;;;;;;12.60;11.30;;;16.20;99.90;;;;;;5015596;28;20044;-74
2023/06/18 02:44:42;;;;;;;15.43;13.82;;;16.10;99.90;;;;;;5031901;28;20045;-74
2023/06/18 02:47:08;;;;;;;16.80;15.07;;;16.00;99.90;;;;;;5031892;28;20091;-74
2023/06/18 02:49:35;;;;;;;20.35;17.50;;;16.00;99.90;;;;;;5031931;28;20038;-74
2023/06/18 02:52:00;;;;;;;22.77;19.33;;;16.00;99.90;;;;;;5032169;28;20120;-74
2023/06/18 02:54:26;;;;;;;18.05;15.30;;;16.00;99.90;;;;;;5031767;28;20053;-74
2023/06/18 02:56:51;;;;;;;18.33;16.42;;;15.90;99.90;;;;;;5015490;28;20049;-74
2023/06/18 02:59:17;;;;;;;25.85;21.10;;;15.80;99.90;;;;;;5032084;28;20069;-74
2023/06/18 03:01:45;;;;;;;25.30;22.25;;;15.80;99.90;;;;;;5031845;28;20561;-74
2023/06/18 03:04:13;;;;;;;26.92;23.30;;;15.80;99.90;;;;;;5031772;28;20056;-74
2023/06/18 03:06:40;;;;;;;25.27;22.55;;;15.80;99.90;;;;;;5031736;28;20124;-74
2023/06/18 03:09:06;;;;;;;23.50;20.90;;;15.80;99.90;;;;;;5031698;28;20054;-74
2023/06/18 03:11:31;;;;;;;25.08;22.38;;;15.80;99.90;;;;;;5031818;28;20044;-74
2023/06/18 03:13:57;;;;;;;24.40;21.83;;;15.80;99.90;;;;;;5031844;28;20049;-74
2023/06/18 03:16:26;;;;;;;24.15;21.08;;;15.80;99.90;;;;;;5031651;28;20420;-74
2023/06/18 03:18:52;;;;;;;26.77;21.42;;;15.80;99.90;;;;;;5032464;28;20038;-74
2023/06/18 03:21:17;;;;;;;24.95;22.25;;;15.80;99.90;;;;;;5031655;28;20041;-74
2023/06/18 03:23:43;;;;;;;25.40;22.63;;;15.80;99.90;;;;;;5015197;28;20042;-74
2023/06/18 03:26:09;;;;;;;28.10;24.95;;;15.90;99.90;;;;;;5015054;28;20037;-74
2023/06/18 03:28:35;;;;;;;26.67;23.83;;;15.80;99.90;;;;;;5031588;28;20096;-74
2023/06/18 03:31:02;;;;;;;29.58;24.38;;;15.90;99.90;;;;;;5031566;28;20466;-74
2023/06/18 03:33:29;;;;;;;31.95;25.60;;;15.90;99.90;;;;;;5031404;28;20410;-74
2023/06/18 03:36:00;;;;;;;30.70;26.48;;;15.90;99.90;;;;;;5031468;28;20041;-74
2023/06/18 03:38:27;;;;;;;29.42;25.67;;;16.00;99.90;;;;;;5031535;28;20045;-74
2023/06/18 03:40:52;;;;;;;31.38;27.20;;;16.00;99.90;;;;;;5031487;28;20073;-74
2023/06/18 03:43:18;;;;;;;32.80;27.30;;;16.00;99.90;;;;;;5031711;28;20119;-74
2023/06/18 03:45:44;;;;;;;32.80;28.60;;;16.00;99.90;;;;;;5031312;28;20543;-74
2023/06/18 03:48:10;;;;;;;31.48;27.75;;;16.10;99.90;;;;;;5031387;28;20038;-74
2023/06/18 03:50:35;;;;;;;32.55;27.70;;;16.10;99.90;;;;;;5031294;28;20467;-74
2023/06/18 03:53:01;;;;;;;34.55;29.27;;;16.00;99.90;;;;;;5031310;28;20088;-74
2023/06/18 03:55:26;;;;;;;31.92;28.35;;;16.10;99.90;;;;;;5031503;28;20037;-74
2023/06/18 03:57:52;;;;;;;35.33;29.20;;;16.10;99.90;;;;;;5032678;28;20041;-74
2023/06/18 04:00:18;;;;;;;30.58;27.27;;;16.20;99.90;;;;;;5034881;28;20064;-74
2023/06/18 04:02:43;;;;;;;33.92;28.33;;;16.20;99.90;;;;;;5034902;28;20124;-74
2023/06/18 04:05:10;;;;;;;36.60;28.80;;;16.20;99.90;;;;;;5034783;28;20042;-74
2023/06/18 04:07:36;;;;;;;31.88;27.23;;;16.20;99.90;;;;;;5034841;28;20050;-74
2023/06/18 04:10:02;;;;;;;32.92;28.05;;;16.30;99.90;;;;;;5034791;28;20045;-74
2023/06/18 04:12:28;;;;;;;34.45;29.38;;;16.30;99.90;;;;;;5035013;28;20037;-74
2023/06/18 04:14:54;;;;;;;32.40;27.23;;;16.40;99.90;;;;;;5034626;28;20486;-74
2023/06/18 04:17:19;;;;;;;31.98;26.85;;;16.40;99.90;;;;;;5034599;28;20038;-74
2023/06/18 04:19:45;;;;;;;31.48;26.70;;;16.40;99.90;;;;;;5034617;28;20045;-74
2023/06/18 04:22:10;;;;;;;33.08;27.67;;;16.40;99.90;;;;;;5034841;28;20038;-74
2023/06/18 04:24:36;;;;;;;31.48;27.00;;;16.50;99.90;;;;;;5034479;28;20408;-74
2023/06/18 04:27:01;;;;;;;34.47;27.35;;;16.50;99.90;;;;;;5034761;28;20041;-74
2023/06/18 04:29:27;;;;;;;32.05;26.60;;;16.50;99.90;;;;;;5034648;28;20533;-74
2023/06/18 04:31:53;;;;;;;35.25;26.27;;;16.50;99.90;;;;;;5018160;28;20391;-74
2023/06/18 04:34:18;;;;;;;32.47;27.00;;;16.50;99.90;;;;;;5034258;28;20045;-74
2023/06/18 04:36:44;;;;;;;32.78;26.08;;;16.60;99.90;;;;;;5034236;28;20037;-74
2023/06/18 04:39:10;;;;;;;33.67;28.35;;;16.60;99.90;;;;;;5034513;28;20087;-74
2023/06/18 04:41:36;;;;;;;32.17;28.08;;;16.60;99.90;;;;;;5034162;28;20468;-74
2023/06/18 04:44:01;;;;;;;32.30;26.33;;;16.70;99.90;;;;;;5034117;28;20040;-74
2023/06/18 04:46:27;;;;;;;30.95;25.60;;;16.70;99.90;;;;;;5034326;28;20099;-74
2023/06/18 04:48:52;;;;;;;31.58;26.52;;;16.70;99.90;;;;;;5034076;28;20041;-74
2023/06/18 04:51:18;;;;;;;32.60;25.27;;;16.70;99.90;;;;;;5034255;28;20111;-74
2023/06/18 04:53:44;;;;;;;32.40;27.35;;;16.70;99.90;;;;;;5033917;28;20056;-74
2023/06/18 04:56:10;;;;;;;32.55;26.95;;;16.80;99.90;;;;;;5033800;28;20045;-74
2023/06/18 04:58:39;;;;;;;31.65;26.58;;;16.80;99.90;;;;;;5034186;28;20458;-74
2023/06/18 05:01:04;;;;;;;34.50;27.60;;;16.80;99.90;;;;;;5033807;28;20044;-74
2023/06/18 05:03:30;;;;;;;32.33;27.88;;;16.90;99.90;;;;;;5033814;28;20042;-74
2023/06/18 05:05:56;;;;;;;31.67;26.35;;;16.90;99.90;;;;;;5033934;28;20052;-74
2023/06/18 05:08:21;;;;;;;31.88;27.38;;;17.00;99.90;;;;;;5033244;28;20490;-74
2023/06/18 05:10:47;;;;;;;31.08;26.60;;;17.00;99.90;;;;;;5033166;28;20033;-74
2023/06/18 05:13:12;;;;;;;31.63;27.10;;;17.00;99.90;;;;;;5033882;28;20045;-74
2023/06/18 05:15:38;;;;;;;34.40;27.83;;;17.10;99.90;;;;;;5033387;28;20489;-74
2023/06/18 05:18:04;;;;;;;30.92;26.23;;;17.10;99.90;;;;;;5033770;28;20048;-74
2023/06/18 05:20:29;;;;;;;32.20;26.73;;;17.20;99.90;;;;;;5033464;28;20423;-74
2023/06/18 05:22:55;;;;;;;26.85;23.45;;;17.30;99.90;;;;;;5033420;28;20080;-74
2023/06/18 05:25:20;;;;;;;32.20;26.83;;;17.20;99.90;;;;;;5033541;28;20042;-74
2023/06/18 05:27:46;;;;;;;31.85;27.52;;;17.30;99.90;;;;;;5033299;28;20048;-74
2023/06/18 05:30:12;;;;;;;30.05;26.60;;;17.40;99.90;;;;;;5033244;28;20068;-74
2023/06/18 05:32:38;;;;;;;34.45;26.05;;;17.40;99.90;;;;;;5033434;28;20092;-74
2023/06/18 05:35:04;;;;;;;31.80;26.98;;;17.50;99.90;;;;;;5033019;28;20080;-74
2023/06/18 05:37:30;;;;;;;28.60;25.13;;;17.60;99.90;;;;;;5033125;28;20033;-74
2023/06/18 05:39:55;;;;;;;31.50;26.75;;;17.60;99.90;;;;;;5033049;28;20076;-74
2023/06/18 05:42:21;;;;;;;31.27;25.10;;;17.70;99.90;;;;;;5033062;28;20048;-74
2023/06/18 05:44:46;;;;;;;29.52;25.35;;;17.80;99.90;;;;;;5033189;28;20041;-74
2023/06/18 05:47:12;;;;;;;33.42;26.30;;;17.90;99.90;;;;;;5033171;28;20470;-74
2023/06/18 05:49:38;;;;;;;30.52;24.63;;;17.90;99.90;;;;;;5033137;28;20535;-74
2023/06/18 05:52:03;;;;;;;30.52;25.17;;;18.00;99.90;;;;;;5032841;28;20395;-74
2023/06/18 05:54:29;;;;;;;31.70;25.20;;;18.00;99.90;;;;;;5032657;28;20041;-74
2023/06/18 05:56:55;;;;;;;29.25;23.92;;;18.20;99.90;;;;;;5033078;28;20037;-74
2023/06/18 05:59:21;;;;;;;29.65;24.55;;;18.30;99.90;;;;;;5032739;28;20041;-74
2023/06/18 06:01:46;;;;;;;32.90;25.17;;;18.30;99.90;;;;;;5032684;28;20049;-74
2023/06/18 06:04:12;;;;;;;27.65;24.25;;;18.40;99.90;;;;;;5032671;28;20041;-74
2023/06/18 06:06:38;;;;;;;29.00;24.15;;;18.50;99.90;;;;;;5016100;28;20037;-74
2023/06/18 06:09:03;;;;;;;28.50;22.33;;;18.60;99.90;;;;;;5032584;28;20045;-74
2023/06/18 06:11:29;;;;;;;29.00;23.77;;;18.60;99.90;;;;;;5032554;28;20038;-74
2023/06/18 06:13:58;;;;;;;28.05;23.20;;;18.80;99.90;;;;;;5032409;28;20042;-73
2023/06/18 06:16:24;;;;;;;27.85;23.35;;;18.90;99.90;;;;;;5032360;28;20033;-73
2023/06/18 06:18:50;;;;;;;27.55;21.58;;;19.00;99.90;;;;;;5032436;28;20041;-73
2023/06/18 06:21:16;;;;;;;27.15;23.30;;;19.10;99.90;;;;;;5032340;28;20041;-73
2023/06/18 06:23:42;;;;;;;30.55;23.17;;;19.20;99.90;;;;;;5032333;28;20490;-73
2023/06/18 06:26:08;;;;;;;24.70;20.77;;;19.30;99.90;;;;;;5015787;28;20128;-74
2023/06/18 06:28:33;;;;;;;25.40;20.77;;;19.40;99.90;;;;;;5032476;28;20180;-74
2023/06/18 06:30:59;;;;;;;24.55;19.33;;;19.40;99.90;;;;;;5032248;28;20044;-74
2023/06/18 06:33:24;;;;;;;24.17;19.77;;;19.50;99.90;;;;;;5032358;28;20127;-74
2023/06/18 06:35:51;;;;;;;21.77;18.98;;;19.60;99.90;;;;;;5032091;28;20490;-74
2023/06/18 06:38:17;;;;;;;24.38;19.60;;;19.70;99.90;;;;;;5032318;28;20568;-74
2023/06/18 06:40:43;;;;;;;21.70;18.77;;;19.80;99.90;;;;;;5032082;28;20041;-74
2023/06/18 06:43:09;;;;;;;21.98;17.73;;;19.80;99.90;;;;;;5015589;28;20091;-74
2023/06/18 06:45:34;;;;;;;21.60;18.58;;;19.90;99.90;;;;;;5015541;28;20045;-74
2023/06/18 06:48:00;;;;;;;22.65;16.77;;;20.00;99.90;;;;;;5032181;28;20103;-74
2023/06/18 06:50:26;;;;;;;21.00;15.60;;;20.10;99.90;;;;;;5015495;28;20041;-74
2023/06/18 06:52:51;;;;;;;18.60;16.23;;;20.20;99.90;;;;;;5032205;28;20044;-74
2023/06/18 06:55:17;;;;;;;23.70;15.07;;;20.40;99.90;;;;;;5031667;28;20564;-74
2023/06/18 06:57:42;;;;;;;16.33;14.48;;;20.50;99.90;;;;;;5015506;28;20041;-74
2023/06/18 07:00:10;;;;;;;23.83;14.98;;;20.60;99.90;;;;;;5015421;28;20495;-74
2023/06/18 07:02:36;;;;;;;17.15;14.05;;;20.80;99.90;;;;;;5032121;28;20262;-74
2023/06/18 07:05:02;;;;;;;15.57;13.20;;;21.00;99.90;;;;;;5031774;28;20511;-74
2023/06/18 07:07:27;;;;;;;17.45;13.77;;;21.10;99.90;;;;;;5031790;28;20052;-74
2023/06/18 07:09:53;;;;;;;16.27;12.57;;;21.30;99.90;;;;;;5032045;28;20038;-74
2023/06/18 07:12:18;;;;;;;15.85;12.75;;;21.40;99.90;;;;;;5032040;28;20525;-74
2023/06/18 07:14:44;;;;;;;18.75;13.55;;;21.40;99.80;;;;;;5015125;28;20521;-74
2023/06/18 07:17:10;;;;;;;14.65;12.60;;;21.40;99.50;;;;;;5031659;28;20088;-74
2023/06/18 07:19:35;;;;;;;17.60;13.15;;;21.50;99.40;;;;;;5031698;28;20122;-74
2023/06/18 07:22:01;;;;;;;18.35;13.40;;;21.50;99.00;;;;;;5031637;28;20041;-74
2023/06/18 07:24:26;;;;;;;16.60;12.45;;;21.60;98.40;;;;;;5031600;28;20517;-74
2023/06/18 07:26:52;;;;;;;17.10;12.25;;;21.70;98.30;;;;;;5031497;28;20034;-74
2023/06/18 07:29:17;;;;;;;13.75;12.25;;;21.80;98.00;;;;;;5031579;28;20045;-74
2023/06/18 07:31:43;;;;;;;14.40;11.77;;;22.00;97.50;;;;;;5031820;28;20048;-75
2023/06/18 07:34:09;;;;;;;13.93;11.05;;;22.10;97.10;;;;;;5035000;28;20460;-75
2023/06/18 07:36:35;;;;;;;13.60;12.02;;;22.20;97.40;;;;;;5035386;28;20043;-74
2023/06/18 07:39:01;;;;;;;13.35;11.35;;;22.20;97.00;;;;;;5035358;28;20120;-74
2023/06/18 07:41:26;;;;;;;18.17;13.02;;;22.30;96.80;;;;;;5035313;28;20042;-74
2023/06/18 07:43:52;;;;;;;14.90;12.80;;;22.50;96.50;;;;;;5018770;28;20048;-74
2023/06/18 07:46:18;;;;;;;16.73;12.85;;;22.60;95.20;;;;;;5035170;28;20048;-74
2023/06/18 07:48:43;;;;;;;16.75;11.40;;;22.70;94.60;;;;;;5035221;28;20045;-74
2023/06/18 07:51:09;;;;;;;15.40;11.18;;;22.80;94.40;;;;;;5018708;28;20040;-74
2023/06/18 07:53:35;;;;;;;15.13;11.30;;;23.00;94.30;;;;;;5035061;28;20033;-74
2023/06/18 07:56:01;;;;;;;13.70;11.00;;;23.10;93.60;;;;;;5018451;28;20041;-74
2023/06/18 07:58:26;;;;;;;15.10;10.88;;;23.30;93.40;;;;;;5035013;28;20049;-74
2023/06/18 08:00:52;;;;;;;12.60;10.38;;;23.40;93.20;;;;;;5035228;28;20037;-74
2023/06/18 08:03:18;;;;;;;14.68;11.52;;;23.50;92.60;;;;;;5018568;28;20069;-74
2023/06/18 08:05:43;;;;;;;12.57;10.57;;;23.60;92.20;;;;;;5035092;28;20043;-74
2023/06/18 08:08:09;;;;;;;13.50;10.82;;;23.70;91.60;;;;;;5034792;28;20489;-74
2023/06/18 08:10:35;;;;;;;14.02;10.40;;;23.80;90.80;;;;;;5035070;28;20037;-74
2023/06/18 08:13:02;;;;;;;13.20;10.85;;;23.90;90.40;;;;;;5034747;28;20561;-74
2023/06/18 08:15:27;;;;;;;13.40;10.50;;;24.00;90.40;;;;;;5034545;28;20041;-74
2023/06/18 08:17:53;;;;;;;13.85;10.55;;;24.20;90.20;;;;;;5034619;28;20121;-74
2023/06/18 08:20:19;;;;;;;16.48;11.07;;;24.40;90.00;;;;;;5034661;28;20049;-74
2023/06/18 08:22:44;;;;;;;12.20;9.50;;;24.50;88.10;;;;;;5034609;28;20068;-74
2023/06/18 08:25:10;;;;;;;13.00;10.75;;;24.60;88.10;;;;;;5034441;28;20068;-74
2023/06/18 08:27:36;;;;;;;12.98;10.27;;;24.70;85.70;;;;;;5034473;28;20048;-74
2023/06/18 08:30:02;;;;;;;11.77;9.40;;;24.90;84.60;;;;;;5018374;28;20068;-74
2023/06/18 08:32:27;;;;;;;11.43;9.63;;;25.00;84.00;;;;;;5034400;28;20045;-74
2023/06/18 08:34:53;;;;;;;11.52;9.27;;;25.20;84.50;;;;;;5034426;28;20041;-74
2023/06/18 08:37:19;;;;;;;11.05;8.98;;;25.40;82.60;;;;;;5034301;28;20571;-74
2023/06/18 08:39:44;;;;;;;9.23;8.02;;;25.50;81.10;;;;;;5034576;28;20036;-74
2023/06/18 08:42:13;;;;;;;9.23;7.13;;;25.60;79.90;;;;;;5034217;28;20509;-74
2023/06/18 08:44:38;;;;;;;9.82;7.35;;;25.70;77.30;;;;;;5033844;28;20052;-74
2023/06/18 08:47:04;;;;;;;9.10;6.80;;;25.90;75.50;;;;;;5034118;28;20038;-74
2023/06/18 08:49:31;;;;;;;8.48;7.57;;;26.00;72.70;;;;;;5017910;28;20119;-74
2023/06/18 08:51:59;;;;;;;9.30;8.05;;;26.20;72.90;;;;;;5034254;28;20052;-74
2023/06/18 08:54:35;;;;;;;9.13;7.40;;;26.30;73.10;;;;;;5033968;28;20041;-74
2023/06/18 08:57:20;;;;;;;11.65;7.30;;;26.40;71.30;;;;;;5033989;28;20048;-74
2023/06/18 08:59:47;;;;;;;10.02;6.82;;;26.50;70.60;;;;;;5033948;28;20037;-74
2023/06/18 09:02:13;;;;;;;8.27;7.15;;;26.70;71.50;;;;;;5033823;28;20041;-74
2023/06/18 09:04:39;;;;;;;7.50;6.45;;;26.80;69.60;;;;;;5033784;28;20041;-74
2023/06/18 09:07:06;;;;;;;10.05;6.47;;;26.80;68.20;;;;;;5033745;28;20045;-74
2023/06/18 09:09:31;;;;;;;8.52;6.18;;;26.80;66.50;;;;;;5033684;28;20041;-74
2023/06/18 09:11:57;;;;;;;8.20;6.57;;;26.80;64.80;;;;;;5033917;28;20049;-74
2023/06/18 09:14:24;;;;;;;9.50;6.60;;;27.00;64.80;;;;;;5033522;28;20608;-74
2023/06/18 09:16:51;;;;;;;11.00;6.57;;;27.00;64.80;;;;;;5033739;28;20490;-74
2023/06/18 09:19:18;;;;;;;7.43;6.63;;;27.20;63.60;;;;;;5033533;28;20049;-74
2023/06/18 09:21:43;;;;;;;10.10;6.72;;;27.20;63.50;;;;;;5033495;28;20099;-74
2023/06/18 09:24:16;;;;;;;7.55;6.38;;;27.40;63.90;;;;;;5033443;28;20045;-74
2023/06/18 09:26:41;;;;;;;;;;;27.60;62.70;;;;;;5033842;28;20524;-74
2023/06/18 09:29:09;;;;;;;8.85;6.07;;;27.70;60.50;;;;;;5033566;28;19917;-74
2023/06/18 09:31:37;;;;;;;8.73;6.18;;;27.70;60.30;;;;;;5033550;28;20045;-74
2023/06/18 09:34:20;;;;;;;9.27;6.35;;;27.90;59.30;;;;;;5033395;28;20037;-74
2023/06/18 09:36:47;;;;;;;7.35;6.05;;;28.00;59.00;;;;;;5033184;28;20116;-74
2023/06/18 09:39:25;;;;;;;8.85;6.20;;;28.20;61.00;;;;;;5033315;28;20473;-74
2023/06/18 09:41:52;;;;;;;7.30;6.53;;;28.40;58.30;;;;;;5033409;28;20144;-74
2023/06/18 09:44:19;;;;;;;8.18;5.90;;;28.60;58.10;;;;;;5033269;28;20128;-74
2023/06/18 09:46:47;;;;;;;7.35;6.28;;;28.80;56.10;;;;;;5033240;28;20049;-74
2023/06/18 09:49:17;;;;;;;8.25;6.38;;;28.90;56.00;;;;;;5033249;28;20057;-74
2023/06/18 09:51:43;;;;;;;7.07;6.28;;;29.10;55.30;;;;;;5033137;28;20382;-74
2023/06/18 09:54:09;;;;;;;9.15;6.22;;;29.30;55.30;;;;;;5032782;28;20044;-74
2023/06/18 09:56:37;;;;;;;8.98;6.47;;;29.60;55.00;;;;;;5032033;28;20041;-74
2023/06/18 09:59:03;;;;;;;8.82;7.03;;;29.80;54.60;;;;;;5033004;28;20098;-74
2023/06/18 10:01:44;;;;;;;11.10;6.25;;;30.00;54.00;;;;;;5032930;28;20444;-74
2023/06/18 10:04:09;;;;;;;10.38;6.07;;;30.00;53.60;;;;;;5032712;28;20053;-74
2023/06/18 10:06:37;;;;;;;7.15;6.13;;;29.90;54.20;;;;;;5032777;28;20041;-74
2023/06/18 10:09:05;;;;;;;10.10;5.90;;;30.00;54.30;;;;;;5032553;28;20050;-74
2023/06/18 10:11:31;;;;;;;7.70;5.35;;;29.90;53.20;;;;;;5016024;28;20041;-74
2023/06/18 10:14:05;;;;;;;7.18;5.85;;;29.90;52.70;;;;;;5032497;28;20064;-74
2023/06/18 10:16:32;;;;;;;9.15;5.57;;;29.90;53.00;;;;;;5032479;28;20038;-74
2023/06/18 10:19:18;;;;;;;8.77;5.80;;;30.00;53.80;;;;;;5032341;28;20398;-74
2023/06/18 10:21:58;;;;;;;8.25;5.90;;;30.10;52.90;;;;;;5032664;28;20073;-74
2023/06/18 10:24:46;;;;;;;7.32;5.18;;;30.20;52.30;;;;;;5015866;28;20494;-74
2023/06/18 10:27:13;;;;;;;10.35;5.65;;;30.30;51.70;;;;;;5016018;28;20433;-74
2023/06/18 10:29:39;;;;;;;10.07;5.93;;;30.30;52.20;;;;;;5032190;28;20041;-74
2023/06/18 10:32:05;;;;;;;9.00;5.80;;;30.30;51.60;;;;;;5032253;28;20060;-74
2023/06/18 10:34:32;;;;;;;8.32;5.50;;;30.40;51.60;;;;;;5032130;28;20049;-74
2023/06/18 10:36:59;;;;;;;8.63;5.55;;;30.40;51.40;;;;;;5015699;28;20038;-74
2023/06/18 10:39:26;;;;;;;7.72;5.50;;;30.50;51.20;;;;;;5015927;28;20064;-74
2023/06/18 10:41:53;;;;;;;6.35;5.75;;;30.40;50.90;;;;;;5015586;28;20050;-74
2023/06/18 10:44:48;;;;;;;9.20;5.93;;;30.30;51.10;;;;;;5032071;28;20053;-74
2023/06/18 10:47:19;;;;;;;6.20;5.60;;;30.20;50.40;;;;;;5032039;28;20532;-74
2023/06/18 10:50:03;;;;;;;11.38;5.50;;;30.10;50.50;;;;;;5031957;28;20049;-74
2023/06/18 10:52:49;;;;;;;6.95;6.10;;;29.90;49.90;;;;;;5032193;28;20056;-74
2023/06/18 10:55:17;;;;;;;8.15;6.15;;;29.80;50.50;;;;;;5015188;28;20037;-74
2023/06/18 10:57:49;;;;;;;6.57;5.22;;;29.60;50.80;;;;;;5015376;28;20037;-74
2023/06/18 11:00:28;;;;;;;6.07;5.13;;;29.70;51.10;;;;;;5032192;28;20037;-74
2023/06/18 11:03:05;;;;;;;8.45;5.78;;;29.80;51.30;;;;;;5032126;28;20406;-74
2023/06/18 11:05:34;;;;;;;6.95;5.90;;;29.80;51.00;;;;;;5031972;28;20497;-74
2023/06/18 11:08:01;;;;;;;8.68;5.72;;;29.80;51.60;;;;;;5035237;28;20049;-74
2023/06/18 11:10:53;;;;;;;8.48;5.43;;;29.80;51.00;;;;;;5035887;28;20063;-74
2023/06/18 11:13:30;;;;;;;6.38;5.43;;;29.80;50.70;;;;;;5035238;28;20140;-74
2023/06/18 11:16:13;;;;;;;6.47;5.45;;;29.70;50.40;;;;;;5035783;28;20120;-74
2023/06/18 11:18:43;;;;;;;7.80;5.93;;;29.60;50.30;;;;;;5035770;28;20044;-74
2023/06/18 11:21:15;;;;;;;7.97;5.60;;;29.60;50.40;;;;;;5035704;28;20037;-74
2023/06/18 11:23:41;;;;;;;6.72;5.93;;;29.50;51.10;;;;;;5019270;28;20075;-74
2023/06/18 11:26:12;;;;;;;8.02;5.97;;;29.40;51.20;;;;;;5035536;28;20041;-74
2023/06/18 11:28:38;;;;;;;6.53;5.45;;;29.40;51.10;;;;;;5035646;28;20038;-74
2023/06/18 11:31:04;;;;;;;7.13;5.53;;;29.30;50.80;;;;;;5019082;28;20508;-74
2023/06/18 11:33:30;;;;;;;6.22;5.60;;;29.40;51.10;;;;;;5035791;28;20569;-74
2023/06/18 11:36:13;;;;;;;8.60;5.60;;;29.50;50.40;;;;;;5036522;28;20390;-74
2023/06/18 11:38:40;;;;;;;7.30;5.07;;;29.60;49.70;;;;;;5035717;28;20068;-74
2023/06/18 11:41:06;;;;;;;10.15;5.97;;;29.60;49.30;;;;;;5035373;28;20045;-74
2023/06/18 11:43:46;;;;;;;7.03;5.18;;;29.70;49.00;;;;;;5035350;28;20099;-74
2023/06/18 11:46:33;;;;;;;7.43;5.65;;;29.80;50.60;;;;;;5035198;28;20072;-74
2023/06/18 11:48:59;;;;;;;8.90;5.28;;;30.00;48.40;;;;;;5035584;28;20040;-74
2023/06/18 11:51:27;;;;;;;8.00;5.40;;;30.10;49.40;;;;;;5035227;28;20384;-74
2023/06/18 11:53:53;;;;;;;6.95;5.70;;;30.20;48.50;;;;;;5035068;28;20044;-74
2023/06/18 11:56:26;;;;;;;6.72;5.78;;;30.40;48.30;;;;;;5018458;28;20080;-74
2023/06/18 11:58:57;;;;;;;9.20;5.80;;;30.60;48.20;;;;;;5034952;28;20041;-74
2023/06/18 12:01:30;;;;;;;6.00;5.10;;;30.70;47.80;;;;;;5035022;28;20037;-73
2023/06/18 12:04:07;;;;;;;7.10;5.55;;;30.80;47.90;;;;;;5034931;28;20433;-73
2023/06/18 12:06:34;;;;;;;7.00;5.47;;;30.90;48.60;;;;;;5034886;28;20517;-73
2023/06/18 12:09:07;;;;;;;8.48;5.10;;;31.00;47.30;;;;;;5034867;28;20360;-73
2023/06/18 12:12:00;;;;;;;7.15;5.10;;;31.00;47.00;;;;;;5034922;28;20052;-73
2023/06/18 12:14:49;;;;;;;9.05;5.68;;;31.10;47.60;;;;;;5034701;28;20037;-73
2023/06/18 12:17:34;;;;;;;9.02;5.60;;;31.10;48.10;;;;;;5034675;28;20049;-73
2023/06/18 12:20:07;;;;;;;10.70;5.47;;;31.30;48.10;;;;;;5034092;28;20037;-73
2023/06/18 12:22:33;;;;;;;9.05;5.72;;;31.50;48.00;;;;;;5034672;28;20044;-72
2023/06/18 12:24:59;;;;;;;6.68;4.95;;;31.60;47.30;;;;;;5034501;28;20048;-72
2023/06/18 12:27:25;;;;;;;8.52;5.70;;;31.70;47.10;;;;;;5018278;28;20454;-72
2023/06/18 12:29:52;;;;;;;7.75;5.68;;;31.80;46.80;;;;;;5034759;28;20156;-72
2023/06/18 12:32:18;;;;;;;7.15;5.55;;;31.70;46.10;;;;;;5034495;28;20041;-72
2023/06/18 12:34:44;;;;;;;9.02;6.03;;;31.80;47.30;;;;;;5034368;28;20091;-72
2023/06/18 12:37:09;;;;;;;7.75;5.18;;;31.90;47.30;;;;;;5034392;28;20037;-72